ADDS METAR Data INFO
IDs: Format: Raw Decoded Include TAF

Data at: 2315 UTC 15 Jul 2018

KSCK 152255Z 32010KT 10SM CLR 34/13 A2987 RMK AO2 SLP113 T03440128 $
KSCK 152155Z 32010KT 10SM CLR 34/13 A2988 RMK AO2 SLP119 T03390133 $
KSCK 152055Z 30010KT 10SM CLR 32/14 A2990 RMK AO2 SLP125 T03170139 58007 $
KSCK 151955Z 28010KT 10SM CLR 31/14 A2991 RMK AO2 SLP128 T03110139 $
KSCK 151855Z 29008KT 10SM CLR 29/13 A2992 RMK AO2 SLP132 T02890128 $
KSCK 151755Z 34004KT 10SM FEW002 27/12 A2992 RMK AO2 SLP132 T02670117 10272 20172 56004 $
KSCK 151655Z 33006KT 10SM CLR 25/12 A2993 RMK AO2 SLP134 T02500117
KSCK 151555Z 36004KT 10SM CLR 23/13 A2993 RMK AO2 SLP136 T02280128
KSCK 151455Z 02003KT 10SM CLR 21/13 A2993 RMK AO2 SLP136 T02060128 51007
KSCK 151355Z 35004KT 10SM CLR 18/13 A2993 RMK AO2 SLP134 T01830128
KSCK 151255Z AUTO 01003KT 10SM CLR 18/13 A2992 RMK AO2 SLP132 T01780128
KSCK 151155Z AUTO 03004KT 10SM CLR 18/13 A2991 RMK AO2 SLP128 T01780128 10250 20178 55001
KSCK 151055Z 00000KT 10SM CLR 18/12 A2990 RMK AO2 SLP126 T01830122
KSCK 150955Z 00000KT 10SM CLR 19/13 A2991 RMK AO2 SLP128 T01940128
KSCK 150855Z 02004KT 10SM CLR 21/13 A2991 RMK AO2 SLP129 T02060133 53003
KSCK 150755Z 30005KT 10SM CLR 23/12 A2991 RMK AO2 SLP127 T02280117 403610194
KSCK 150655Z 27008KT 10SM CLR 24/11 A2991 RMK AO2 SLP127 T02390106
KSCK 150555Z 28008KT 10SM CLR 26/09 A2991 RMK AO2 SLP126 T02560094 10361 20256 51010
KSCK 150455Z 28011KT 10SM CLR 27/08 A2989 RMK AO2 SLP122 T02670083
KSCK 150355Z 29009KT 10SM CLR 28/08 A2989 RMK AO2 SLP121 T02830083
KSCK 150255Z 29012KT 10SM CLR 31/10 A2987 RMK AO2 SLP116 T03110100 55002
KSCK 150155Z 29013KT 10SM CLR 33/16 A2986 RMK AO2 SLP109 T03280156
KSCK 150055Z 29012KT 10SM CLR 34/15 A2987 RMK AO2 SLP114 T03440150
KSCK 142355Z 31011KT 10SM CLR 36/14 A2988 RMK AO2 SLP118 T03610144 10361 20283 56016
KSCK 142255Z 30013KT 10SM CLR 36/13 A2989 RMK AO2 SLP120 T03560133
KSCK 142155Z 29014KT 10SM CLR 36/14 A2990 RMK AO2 SLP125 T03610139
KSCK 142055Z 29010G16KT 10SM CLR 34/14 A2993 RMK AO2 SLP134 T03390144 58017
KSCK 141955Z 32010KT 10SM CLR 33/14 A2995 RMK AO2 SLP141 T03280144
KSCK 141855Z 30011KT 10SM CLR 31/15 A2997 RMK AO2 SLP147 T03060150
KSCK 141755Z 28013KT 10SM CLR 29/14 A2998 RMK AO2 SLP151 T02890144 10289 20194 50001
KSCK 141655Z 33007KT 10SM CLR 27/13 A2999 RMK AO2 SLP153 T02670133
KSCK 141555Z 34005KT 10SM CLR 25/13 A2998 RMK AO2 SLP153 T02500128
KSCK 141455Z 33008KT 10SM CLR 23/13 A2997 RMK AO2 SLP150 T02280133 52005
KSCK 141355Z 32008KT 10SM CLR 22/13 A2997 RMK AO2 SLP148 T02170128
KSCK 141255Z AUTO 35005KT 10SM CLR 19/13 A2996 RMK AO2 SLP146 T01940128
KSCK 141155Z AUTO 34006KT 10SM CLR 19/13 A2996 RMK AO2 SLP145 T01940128 10272 20194 53000